Terminal Aerodrome Forecast
Issued by NWS Quad Cities IA IL

Home | Current Version | Previous Version | Text Only | Print | Product List | Glossary On
Versions: 1 2 3 4 5 6 7 8 9 10 11 12 13 14 15 16 17 18 19 20 21 22 23 24 25
000
FTUS43 KDVN 250800 AAA
TAFDBQ
TAF AMD
KDBQ 250856Z 2509/2606 06010KT 6SM BR BKN006 OVC060
     FM251100 04011G19KT 3SM -SN BR BKN008 OVC015
     FM251500 03014G23KT P6SM BKN020
     FM252000 02011KT P6SM SCT030 SCT250=

USA.gov is the U.S. government's official web portal to all federal, state and local government web resources and services.